createdAt,value
2018-01-19T00:01:38.439Z,93447.61
2018-01-19T00:04:06.823Z,93446.53
2018-01-19T00:06:35.315Z,93447.03
2018-01-19T00:09:03.665Z,93455.55
2018-01-19T00:11:32.048Z,93453.64
2018-01-19T00:14:00.445Z,93447.84
2018-01-19T00:16:28.799Z,93457.70
2018-01-19T00:18:57.304Z,93457.59
2018-01-19T00:21:25.667Z,93452.15
2018-01-19T00:23:54.058Z,93457.77
2018-01-19T00:26:22.447Z,93463.69
2018-01-19T00:28:50.844Z,93452.38
2018-01-19T00:31:19.254Z,93457.17
2018-01-19T00:33:47.627Z,93455.20
2018-01-19T00:36:16.040Z,93449.46
2018-01-19T00:38:44.434Z,93454.44
2018-01-19T00:41:12.792Z,93453.91
2018-01-19T00:43:41.155Z,93455.86
2018-01-19T00:46:09.531Z,93455.86
2018-01-19T00:48:37.883Z,93459.84
2018-01-19T00:51:06.283Z,93466.93
2018-01-19T00:53:34.642Z,93463.70
2018-01-19T00:56:02.992Z,93458.52
2018-01-19T00:58:31.348Z,93472.05
2018-01-19T01:00:59.714Z,93469.15
2018-01-19T01:03:28.110Z,93469.97
2018-01-19T01:05:56.462Z,93473.10
2018-01-19T01:08:24.815Z,93474.70
2018-01-19T01:10:53.176Z,93475.70
2018-01-19T01:13:21.531Z,93475.20
2018-01-19T01:15:49.918Z,93474.25
2018-01-19T01:18:18.271Z,93478.91
2018-01-19T01:20:46.636Z,93482.34
2018-01-19T01:23:14.989Z,93478.86
2018-01-19T01:25:43.346Z,93486.34
2018-01-19T01:28:11.758Z,93481.27
2018-01-19T01:30:40.155Z,93486.92
2018-01-19T01:33:08.547Z,93481.45
2018-01-19T01:35:36.899Z,93488.77
2018-01-19T01:38:05.271Z,93486.37
2018-01-19T01:40:33.648Z,93486.47
2018-01-19T01:43:02.032Z,93488.27
2018-01-19T01:45:30.411Z,93492.73
2018-01-19T01:47:58.780Z,93491.97
2018-01-19T01:50:27.151Z,93494.59
2018-01-19T01:52:55.535Z,93490.33
2018-01-19T01:55:23.920Z,93494.59
2018-01-19T01:57:52.278Z,93495.33
2018-01-19T02:00:20.647Z,93500.51
2018-01-19T02:02:49.246Z,93509.28
2018-01-19T02:05:17.651Z,93501.06
2018-01-19T02:07:46.008Z,93508.23
2018-01-19T02:10:14.359Z,93505.89
2018-01-19T02:12:42.732Z,93510.54
2018-01-19T02:15:11.109Z,93509.78
2018-01-19T02:17:39.496Z,93501.05
2018-01-19T02:20:07.856Z,93499.95
2018-01-19T02:22:36.223Z,93501.94
2018-01-19T02:25:04.584Z,93496.67
2018-01-19T02:27:32.975Z,93494.44
2018-01-19T02:30:01.368Z,93494.01
2018-01-19T02:32:29.728Z,93489.88
2018-01-19T02:34:58.095Z,93499.73
2018-01-19T02:37:26.458Z,93494.70
2018-01-19T02:39:54.833Z,93492.00
2018-01-19T02:42:23.247Z,93492.27
2018-01-19T02:44:51.643Z,93492.53
2018-01-19T02:47:20.043Z,93485.04
2018-01-19T02:49:48.407Z,93490.64
2018-01-19T02:52:16.801Z,93488.53
2018-01-19T02:54:45.305Z,93491.47
2018-01-19T02:57:13.702Z,93486.69
2018-01-19T02:59:42.068Z,93490.21
2018-01-19T03:02:10.441Z,93486.84
2018-01-19T03:04:38.797Z,93497.05
2018-01-19T03:07:07.345Z,93493.45
2018-01-19T03:09:35.751Z,93496.73
2018-01-19T03:12:04.116Z,93500.88
2018-01-19T03:14:32.507Z,93497.23
2018-01-19T03:17:00.876Z,93504.63
2018-01-19T03:19:29.252Z,93500.24
2018-01-19T03:21:57.632Z,93505.00
2018-01-19T03:24:25.982Z,93514.13
2018-01-19T03:26:54.336Z,93504.84
2018-01-19T03:29:22.694Z,93513.92
2018-01-19T03:31:51.098Z,93512.59
2018-01-19T03:34:19.440Z,93511.05
2018-01-19T03:36:47.843Z,93524.13
2018-01-19T03:39:16.331Z,93520.58
2018-01-19T03:41:44.684Z,93521.73
2018-01-19T03:44:13.042Z,93522.64
2018-01-19T03:46:41.405Z,93522.10
2018-01-19T03:49:09.759Z,93524.61
2018-01-19T03:51:38.154Z,93523.46
2018-01-19T03:54:06.514Z,93516.80
2018-01-19T03:56:34.885Z,93514.47
2018-01-19T03:59:03.245Z,93524.93
2018-01-19T04:01:31.596Z,93513.52
2018-01-19T04:03:59.946Z,93517.47
2018-01-19T04:06:28.471Z,93511.22
2018-01-19T04:08:56.840Z,93519.80
2018-01-19T04:11:25.185Z,93514.75
2018-01-19T04:13:53.537Z,93515.69
2018-01-19T04:16:21.893Z,93524.55
2018-01-19T04:18:50.313Z,93519.80
2018-01-19T04:21:18.658Z,93517.53
2018-01-19T04:23:47.019Z,93515.33
2018-01-19T04:26:15.375Z,93511.98
2018-01-19T04:28:43.744Z,93518.92
2018-01-19T04:31:12.122Z,93521.58
2018-01-19T04:33:40.563Z,93523.53
2018-01-19T04:36:08.919Z,93519.59
2018-01-19T04:38:37.291Z,93526.27
2018-01-19T04:41:05.657Z,93534.41
2018-01-19T04:43:34.047Z,93532.97
2018-01-19T04:46:02.429Z,93532.24
2018-01-19T04:48:30.784Z,93535.61
2018-01-19T04:50:59.158Z,93530.08
2018-01-19T04:53:27.514Z,93544.18
2018-01-19T04:55:55.872Z,93542.83
2018-01-19T04:58:24.219Z,93541.38
2018-01-19T05:00:52.618Z,93541.39
2018-01-19T05:03:20.970Z,93544.77
2018-01-19T05:05:49.329Z,93554.55
2018-01-19T05:08:17.694Z,93551.53
2018-01-19T05:10:46.135Z,93553.80
2018-01-19T05:13:14.545Z,93555.45
2018-01-19T05:15:43.370Z,93555.09
2018-01-19T05:18:11.722Z,93560.85
2018-01-19T05:20:40.085Z,93566.02
2018-01-19T05:23:08.437Z,93567.30
2018-01-19T05:25:36.821Z,93561.83
2018-01-19T05:28:05.162Z,93567.64
2018-01-19T05:30:33.524Z,93564.97
2018-01-19T05:33:01.866Z,93567.04
2018-01-19T05:35:30.238Z,93569.56
2018-01-19T05:37:58.644Z,93565.74
2018-01-19T05:40:27.003Z,93570.48
2018-01-19T05:42:55.370Z,93569.44
2018-01-19T05:45:23.728Z,93573.95
2018-01-19T05:47:52.073Z,93577.63
2018-01-19T05:50:20.587Z,93571.42
2018-01-19T05:52:48.946Z,93573.02
2018-01-19T05:55:17.671Z,93573.45
2018-01-19T05:57:46.133Z,93573.52
2018-01-19T06:00:14.474Z,93574.81
2018-01-19T06:02:42.848Z,93578.31
2018-01-19T06:05:11.214Z,93589.20
2018-01-19T06:07:39.569Z,93590.20
2018-01-19T06:10:08.023Z,93598.13
2018-01-19T06:12:36.364Z,93603.81
2018-01-19T06:15:04.760Z,93605.00
2018-01-19T06:17:33.141Z,93614.30
2018-01-19T06:20:01.495Z,93623.83
2018-01-19T06:22:29.851Z,93623.49
2018-01-19T06:24:58.208Z,93625.16
2018-01-19T06:27:26.589Z,93631.55
2018-01-19T06:29:54.975Z,93643.38
2018-01-19T06:32:23.341Z,93644.27
2018-01-19T06:34:51.688Z,93641.12
2018-01-19T06:37:20.626Z,93645.98
2018-01-19T06:39:49.175Z,93658.23
2018-01-19T06:42:17.653Z,93655.34
2018-01-19T06:44:46.130Z,93659.55
2018-01-19T06:47:14.553Z,93665.39
2018-01-19T06:49:42.923Z,93665.67
2018-01-19T06:52:11.306Z,93660.43
2018-01-19T06:54:39.655Z,93668.95
2018-01-19T06:57:08.013Z,93671.15
2018-01-19T06:59:36.373Z,93677.20
2018-01-19T07:02:04.729Z,93682.15
2018-01-19T07:04:33.136Z,93690.11
2018-01-19T07:07:01.487Z,93689.91
2018-01-19T07:09:29.832Z,93695.42
2018-01-19T07:11:58.188Z,93711.37
2018-01-19T07:14:26.540Z,93708.31
2018-01-19T07:16:54.975Z,93711.20
2018-01-19T07:19:23.348Z,93721.37
2018-01-19T07:21:51.699Z,93724.47
2018-01-19T07:24:20.067Z,93730.38
2018-01-19T07:26:48.422Z,93733.45
2018-01-19T07:29:16.833Z,93741.09
2018-01-19T07:31:45.175Z,93733.34
2018-01-19T07:34:13.530Z,93737.90
2018-01-19T07:36:41.889Z,93746.77
2018-01-19T07:39:10.239Z,93747.46
2018-01-19T07:41:38.719Z,93753.48
2018-01-19T07:44:07.082Z,93754.27
2018-01-19T07:46:35.430Z,93753.95
2018-01-19T07:49:03.782Z,93759.09
2018-01-19T07:51:32.134Z,93762.41
2018-01-19T07:54:00.543Z,93766.59
2018-01-19T07:56:28.904Z,93771.00
2018-01-19T07:58:57.263Z,93777.92
2018-01-19T08:01:25.620Z,93781.77
2018-01-19T08:03:53.982Z,93790.60
2018-01-19T08:06:22.389Z,93793.85
2018-01-19T08:08:50.738Z,93794.80
2018-01-19T08:11:19.098Z,93801.70
2018-01-19T08:13:47.467Z,93808.11
2018-01-19T08:16:15.945Z,93811.28
2018-01-19T08:18:44.334Z,93817.28
2018-01-19T08:21:12.692Z,93822.98
2018-01-19T08:23:41.044Z,93820.00
2018-01-19T08:26:09.394Z,93828.68
2018-01-19T08:28:37.746Z,93828.06
2018-01-19T08:31:06.142Z,93832.06
2018-01-19T08:33:34.554Z,93842.93
2018-01-19T08:36:02.911Z,93857.18
2018-01-19T08:38:31.281Z,93847.67
2018-01-19T08:40:59.637Z,93850.41
2018-01-19T08:43:28.038Z,93850.32
2018-01-19T08:45:56.405Z,93862.59
2018-01-19T08:48:24.802Z,93859.86
2018-01-19T08:50:53.168Z,93863.28
2018-01-19T08:53:21.626Z,93872.70
2018-01-19T08:55:50.027Z,93873.79
2018-01-19T08:58:18.377Z,93872.32
2018-01-19T09:00:46.737Z,93877.72
2018-01-19T09:03:15.100Z,93881.95
2018-01-19T09:05:43.442Z,93890.84
2018-01-19T09:08:11.839Z,93888.71
2018-01-19T09:10:40.191Z,93894.81
2018-01-19T09:13:08.547Z,93897.21
2018-01-19T09:15:36.912Z,93902.03
2018-01-19T09:18:05.275Z,93910.09
2018-01-19T09:20:33.656Z,93906.56
2018-01-19T09:23:02.053Z,93911.13
2018-01-19T09:25:30.395Z,93919.32
2018-01-19T09:27:58.766Z,93928.31
2018-01-19T09:30:27.123Z,93933.81
2018-01-19T09:32:55.512Z,93935.55
2018-01-19T09:35:23.871Z,93938.37
2018-01-19T09:37:52.232Z,93942.42
2018-01-19T09:40:20.574Z,93942.52
2018-01-19T09:42:48.928Z,93947.23
2018-01-19T09:45:17.330Z,93953.97
2018-01-19T09:47:45.678Z,93955.27
2018-01-19T09:50:14.055Z,93965.70
2018-01-19T09:52:42.403Z,93972.95
2018-01-19T09:55:10.760Z,93972.84
2018-01-19T09:57:39.171Z,93965.95
2018-01-19T10:00:07.510Z,93975.05
2018-01-19T10:02:35.876Z,93973.66
2018-01-19T10:05:04.228Z,93974.97
2018-01-19T10:07:32.590Z,93981.38
2018-01-19T10:10:00.974Z,93991.86
2018-01-19T10:12:29.357Z,93985.83
2018-01-19T10:14:57.718Z,93988.53
2018-01-19T10:17:26.073Z,93987.77
2018-01-19T10:19:54.429Z,93987.30
2018-01-19T10:22:22.802Z,93980.12
2018-01-19T10:24:51.182Z,93990.97
2018-01-19T10:27:19.532Z,93980.67
2018-01-19T10:29:47.900Z,93987.96
2018-01-19T10:32:16.247Z,93986.61
2018-01-19T10:34:44.683Z,93987.77
2018-01-19T10:37:13.066Z,93998.03
2018-01-19T10:39:41.426Z,93984.89
2018-01-19T10:42:09.791Z,93990.38
2018-01-19T10:44:38.149Z,93992.55
2018-01-19T10:47:06.531Z,93987.08
2018-01-19T10:49:34.894Z,93996.02
2018-01-19T10:52:03.267Z,93995.52
2018-01-19T10:54:31.646Z,94008.35
2018-01-19T10:57:00.027Z,93997.91
2018-01-19T10:59:28.405Z,94008.91
2018-01-19T11:01:56.772Z,93999.19
2018-01-19T11:04:25.121Z,94000.52
2018-01-19T11:06:53.607Z,94004.03
2018-01-19T11:09:21.967Z,94012.75
2018-01-19T11:11:50.360Z,94001.69
2018-01-19T11:14:18.712Z,94001.91
2018-01-19T11:16:47.091Z,94007.25
2018-01-19T11:19:15.559Z,94007.30
2018-01-19T11:21:43.914Z,94022.94
2018-01-19T11:24:12.309Z,94010.36
2018-01-19T11:26:40.681Z,94010.63
2018-01-19T11:29:09.086Z,94007.80
2018-01-19T11:31:37.446Z,94018.86
2018-01-19T11:34:05.825Z,94022.83
2018-01-19T11:36:34.230Z,94026.59
2018-01-19T11:39:02.587Z,94016.28
2018-01-19T11:41:31.819Z,94018.49
2018-01-19T11:44:00.207Z,94019.09
2018-01-19T11:46:28.610Z,94022.34
2018-01-19T11:48:57.015Z,94028.88
2018-01-19T11:51:25.388Z,94029.62
2018-01-19T11:53:53.751Z,94042.05
2018-01-19T11:56:22.162Z,94039.75
2018-01-19T11:58:50.531Z,94036.72
2018-01-19T12:01:19.011Z,94037.45
2018-01-19T12:03:47.352Z,94037.98
2018-01-19T12:06:15.707Z,94038.83
2018-01-19T12:08:44.103Z,94037.48
2018-01-19T12:11:12.465Z,94038.04
2018-01-19T12:13:40.887Z,94043.16
2018-01-19T12:16:09.258Z,94041.23
2018-01-19T12:18:37.635Z,94043.34
2018-01-19T12:21:06.020Z,94044.66
2018-01-19T12:23:34.385Z,94049.09
2018-01-19T12:26:02.740Z,94047.66
2018-01-19T12:28:31.142Z,94047.49
2018-01-19T12:30:59.511Z,94043.39
2018-01-19T12:33:27.891Z,94044.45
2018-01-19T12:35:56.281Z,94034.84
2018-01-19T12:38:24.646Z,94038.17
2018-01-19T12:40:53.034Z,94041.66
2018-01-19T12:43:21.400Z,94039.05
2018-01-19T12:45:49.762Z,94038.04
2018-01-19T12:48:18.124Z,94030.75
2018-01-19T12:50:46.487Z,94038.87
2018-01-19T12:53:14.931Z,94034.38
2018-01-19T12:55:43.315Z,94035.95
2018-01-19T12:58:11.671Z,94034.45
2018-01-19T13:00:40.041Z,94038.63
2018-01-19T13:03:08.458Z,94042.06
2018-01-19T13:05:36.842Z,94040.52
2018-01-19T13:08:05.188Z,94049.91
2018-01-19T13:10:33.886Z,94045.80
2018-01-19T13:13:02.428Z,94043.73
2018-01-19T13:15:30.802Z,94038.68
2018-01-19T13:17:59.201Z,94047.51
2018-01-19T13:20:27.572Z,94052.92
2018-01-19T13:22:55.979Z,94048.70
2018-01-19T13:25:24.354Z,94043.52
2018-01-19T13:27:52.725Z,94038.08
2018-01-19T13:30:21.129Z,94046.34
2018-01-19T13:32:49.510Z,94036.80
2018-01-19T13:35:17.884Z,94034.52
2018-01-19T13:37:46.244Z,94041.42
2018-01-19T13:40:14.598Z,94043.86
2018-01-19T13:42:42.974Z,94036.12
2018-01-19T13:45:11.336Z,94032.34
2018-01-19T13:47:39.706Z,94040.52
2018-01-19T13:50:08.068Z,94039.97
2018-01-19T13:52:36.430Z,94038.41
2018-01-19T13:55:04.831Z,94038.41
2018-01-19T13:57:33.194Z,94042.34
2018-01-19T14:00:01.583Z,94047.93
2018-01-19T14:02:29.959Z,94049.36
2018-01-19T14:04:58.326Z,94047.30
2018-01-19T14:07:27.671Z,94048.17
2018-01-19T14:09:57.911Z,94050.89
2018-01-19T14:12:26.312Z,94041.98
2018-01-19T14:14:54.688Z,94050.20
2018-01-19T14:17:23.138Z,94047.70
2018-01-19T14:19:51.525Z,94049.80
2018-01-19T14:22:20.120Z,94052.11
2018-01-19T14:24:48.524Z,94056.70
2018-01-19T14:27:16.882Z,94056.38
2018-01-19T14:29:45.247Z,94048.44
2018-01-19T14:32:13.643Z,94052.52
2018-01-19T14:34:42.944Z,94045.79
2018-01-19T14:37:11.299Z,94054.61
2018-01-19T14:39:39.698Z,94056.16
2018-01-19T14:42:08.051Z,94049.01
2018-01-19T14:44:36.448Z,94059.42
2018-01-19T14:47:04.805Z,94063.63
2018-01-19T14:49:33.275Z,94060.03
2018-01-19T14:52:01.631Z,94061.25
2018-01-19T14:54:29.995Z,94064.56
2018-01-19T14:56:58.400Z,94071.16
2018-01-19T14:59:26.764Z,94072.13
2018-01-19T15:01:55.132Z,94081.00
2018-01-19T15:04:23.492Z,94080.79
2018-01-19T15:06:51.870Z,94082.45
2018-01-19T15:09:20.257Z,94079.52
2018-01-19T15:11:48.618Z,94087.02
2018-01-19T15:14:16.974Z,94089.88
2018-01-19T15:16:45.331Z,94086.09
2018-01-19T15:19:13.682Z,94088.33
2018-01-19T15:21:42.064Z,94090.34
2018-01-19T15:24:10.483Z,94083.48
2018-01-19T15:26:38.920Z,94083.36
2018-01-19T15:29:07.324Z,94085.31
2018-01-19T15:31:35.670Z,94083.48
2018-01-19T15:34:04.170Z,94086.69
2018-01-19T15:36:32.543Z,94079.49
2018-01-19T15:39:00.912Z,94070.03
2018-01-19T15:41:29.290Z,94081.72
2018-01-19T15:43:57.672Z,94076.20
2018-01-19T15:46:26.058Z,94077.32
2018-01-19T15:48:54.407Z,94075.56
2018-01-19T15:51:22.787Z,94073.95
2018-01-19T15:53:51.148Z,94077.50
2018-01-19T15:56:19.580Z,94076.48
2018-01-19T15:58:47.968Z,94073.80
2018-01-19T16:01:16.356Z,94069.45
2018-01-19T16:03:44.713Z,94068.86
2018-01-19T16:06:13.071Z,94069.99
2018-01-19T16:08:41.427Z,94059.98
2018-01-19T16:11:09.839Z,94061.17
2018-01-19T16:13:38.190Z,94052.19
2018-01-19T16:16:06.577Z,94050.55
2018-01-19T16:18:34.930Z,94053.20
2018-01-19T16:21:03.298Z,94054.92
2018-01-19T16:23:31.823Z,94052.42
2018-01-19T16:26:00.171Z,94051.95
2018-01-19T16:28:28.564Z,94055.05
2018-01-19T16:30:56.922Z,94052.42
2018-01-19T16:33:25.275Z,94056.42
2018-01-19T16:35:53.684Z,94047.03
2018-01-19T16:38:22.136Z,94047.53
2018-01-19T16:40:50.495Z,94042.63
2018-01-19T16:43:18.864Z,94040.63
2018-01-19T16:45:47.247Z,94036.66
2018-01-19T16:48:15.618Z,94036.17
2018-01-19T16:50:43.973Z,94041.88
2018-01-19T16:53:12.327Z,94037.88
2018-01-19T16:55:40.714Z,94036.59
2018-01-19T16:58:09.093Z,94028.98
2018-01-19T17:00:37.452Z,94038.16
2018-01-19T17:03:05.824Z,94037.28
2018-01-19T17:05:34.385Z,94043.13
2018-01-19T17:08:02.772Z,94042.13
2018-01-19T17:10:31.155Z,94056.10
2018-01-19T17:12:59.575Z,94048.80
2018-01-19T17:15:27.967Z,94057.95
2018-01-19T17:17:56.339Z,94059.13
2018-01-19T17:20:24.738Z,94057.03
2018-01-19T17:22:53.124Z,94056.67
2018-01-19T17:25:21.482Z,94059.23
2018-01-19T17:27:49.842Z,94060.12
2018-01-19T17:30:18.212Z,94061.20
2018-01-19T17:32:46.624Z,94066.64
2018-01-19T17:35:14.989Z,94064.81
2018-01-19T17:37:43.340Z,94066.29
2018-01-19T17:40:11.714Z,94075.41
2018-01-19T17:42:40.066Z,94065.34
2018-01-19T17:45:08.455Z,94072.66
2018-01-19T17:47:36.930Z,94069.95
2018-01-19T17:50:05.426Z,94063.61
2018-01-19T17:52:33.812Z,94071.59
2018-01-19T17:55:02.160Z,94064.78
2018-01-19T17:57:30.532Z,94072.38
2018-01-19T17:59:58.926Z,94068.47
2018-01-19T18:02:27.452Z,94068.42
2018-01-19T18:04:55.828Z,94068.91
2018-01-19T18:07:24.202Z,94060.95
2018-01-19T18:09:52.578Z,94068.34
2018-01-19T18:12:20.936Z,94067.95
2018-01-19T18:14:49.338Z,94066.66
2018-01-19T18:17:17.699Z,94072.37
2018-01-19T18:19:46.068Z,94072.30
2018-01-19T18:22:14.419Z,94068.20
2018-01-19T18:24:42.764Z,94069.63
2018-01-19T18:27:11.171Z,94074.69
2018-01-19T18:29:39.527Z,94075.50
2018-01-19T18:32:07.902Z,94067.22
2018-01-19T18:34:36.276Z,94067.30
2018-01-19T18:37:04.723Z,94059.70
2018-01-19T18:39:33.203Z,94061.17
2018-01-19T18:42:01.591Z,94068.73
2018-01-19T18:44:29.971Z,94062.63
2018-01-19T18:46:58.323Z,94058.84
2018-01-19T18:49:26.682Z,94058.61
2018-01-19T18:51:55.086Z,94067.41
2018-01-19T18:54:23.443Z,94061.53
2018-01-19T18:56:51.857Z,94057.31
2018-01-19T18:59:20.328Z,94061.05
2018-01-19T19:01:48.713Z,94064.20
2018-01-19T19:04:17.134Z,94071.52
2018-01-19T19:06:45.501Z,94062.20
2018-01-19T19:09:13.855Z,94061.60
2018-01-19T19:11:42.265Z,94063.40
2018-01-19T19:14:10.625Z,94053.91
2018-01-19T19:16:39.011Z,94057.24
2018-01-19T19:19:07.461Z,94058.52
2018-01-19T19:21:35.815Z,94055.59
2018-01-19T19:24:04.196Z,94051.55
2018-01-19T19:26:32.570Z,94056.27
2018-01-19T19:29:00.956Z,94062.51
2018-01-19T19:31:29.329Z,94065.52
2018-01-19T19:33:57.704Z,94066.45
2018-01-19T19:36:26.063Z,94056.02
2018-01-19T19:38:54.422Z,94056.53
2018-01-19T19:41:22.843Z,94060.88
2018-01-19T19:43:51.239Z,94057.76
2018-01-19T19:46:19.612Z,94067.95
2018-01-19T19:48:47.968Z,94066.33
2018-01-19T19:51:16.331Z,94071.22
2018-01-19T19:53:44.779Z,94061.03
2018-01-19T19:56:13.155Z,94063.53
2018-01-19T19:58:41.525Z,94063.06
2018-01-19T20:01:09.879Z,94060.10
2018-01-19T20:03:38.290Z,94064.27
2018-01-19T20:06:06.703Z,94057.80
2018-01-19T20:08:35.201Z,94059.08
2018-01-19T20:11:03.552Z,94064.63
2018-01-19T20:13:31.916Z,94064.12
2018-01-19T20:16:00.309Z,94077.70
2018-01-19T20:18:28.715Z,94070.72
2018-01-19T20:20:57.101Z,94070.13
2018-01-19T20:23:25.460Z,94078.61
2018-01-19T20:25:53.937Z,94080.07
2018-01-19T20:28:22.335Z,94086.99
2018-01-19T20:30:50.727Z,94084.05
2018-01-19T20:33:19.103Z,94080.45
2018-01-19T20:35:47.459Z,94081.74
2018-01-19T20:38:15.844Z,94076.42
2018-01-19T20:40:44.212Z,94074.58
2018-01-19T20:43:12.564Z,94070.83
2018-01-19T20:45:41.006Z,94075.37
2018-01-19T20:48:09.322Z,94075.70
2018-01-19T20:50:37.689Z,94075.60
2018-01-19T20:53:06.068Z,94077.72
2018-01-19T20:55:34.727Z,94081.21
2018-01-19T20:58:03.137Z,94079.86
2018-01-19T21:00:31.506Z,94079.14
2018-01-19T21:02:59.898Z,94080.33
2018-01-19T21:05:28.394Z,94076.83
2018-01-19T21:07:56.779Z,94077.42
2018-01-19T21:10:25.226Z,94075.73
2018-01-19T21:12:53.632Z,94079.25
2018-01-19T21:15:21.978Z,94080.61
2018-01-19T21:17:50.398Z,94076.73
2018-01-19T21:20:18.761Z,94077.31
2018-01-19T21:22:47.161Z,94072.86
2018-01-19T21:25:15.523Z,94077.55
2018-01-19T21:27:43.888Z,94073.07
2018-01-19T21:30:12.271Z,94067.84
2018-01-19T21:32:40.631Z,94068.21
2018-01-19T21:35:09.021Z,94075.91
2018-01-19T21:37:37.383Z,94077.25
2018-01-19T21:40:05.754Z,94075.08
2018-01-19T21:42:34.133Z,94071.43
2018-01-19T21:45:02.712Z,94070.59
2018-01-19T21:47:31.120Z,94083.16
2018-01-19T21:49:59.478Z,94077.62
2018-01-19T21:52:27.834Z,94078.83
2018-01-19T21:54:56.201Z,94077.03
2018-01-19T21:57:24.574Z,94077.23
2018-01-19T21:59:53.086Z,94075.42
2018-01-19T22:02:21.456Z,94065.05
2018-01-19T22:04:49.811Z,94067.04
2018-01-19T22:07:18.169Z,94065.02
2018-01-19T22:09:46.537Z,94058.91
2018-01-19T22:12:14.913Z,94059.33
2018-01-19T22:14:43.275Z,94068.02
2018-01-19T22:17:11.630Z,94068.44
2018-01-19T22:19:39.994Z,94075.56
2018-01-19T22:22:08.344Z,94073.45
2018-01-19T22:24:36.751Z,94078.94
2018-01-19T22:27:05.096Z,94081.16
2018-01-19T22:29:33.463Z,94100.55
2018-01-19T22:32:01.846Z,94101.84
2018-01-19T22:34:30.218Z,94104.80
2018-01-19T22:36:58.675Z,94096.85
2018-01-19T22:39:27.034Z,94092.07
2018-01-19T22:41:55.378Z,94094.71
2018-01-19T22:44:23.733Z,94090.70
2018-01-19T22:46:52.092Z,94096.62
2018-01-19T22:49:20.442Z,94097.29
2018-01-19T22:51:48.808Z,94095.34
2018-01-19T22:54:17.187Z,94093.45
2018-01-19T22:56:45.555Z,94095.02
2018-01-19T22:59:13.979Z,94093.25
2018-01-19T23:01:42.335Z,94100.83
2018-01-19T23:04:10.706Z,94093.34
2018-01-19T23:06:39.073Z,94085.78
2018-01-19T23:09:07.418Z,94094.13
2018-01-19T23:11:35.793Z,94083.42
2018-01-19T23:14:04.162Z,94084.55
2018-01-19T23:16:32.516Z,94084.05
2018-01-19T23:19:00.888Z,94084.48
2018-01-19T23:21:29.238Z,94084.61
2018-01-19T23:23:57.629Z,94083.46
2018-01-19T23:26:25.986Z,94078.75
2018-01-19T23:28:54.331Z,94083.78
2018-01-19T23:31:22.787Z,94080.27
2018-01-19T23:33:51.135Z,94079.41
2018-01-19T23:36:19.521Z,94080.31
2018-01-19T23:38:47.884Z,94078.74
2018-01-19T23:41:16.227Z,94082.30
2018-01-19T23:43:44.586Z,94080.72
2018-01-19T23:46:12.943Z,94076.75
2018-01-19T23:48:41.323Z,94080.22
2018-01-19T23:51:09.678Z,94082.23
2018-01-19T23:53:38.030Z,94082.88
2018-01-19T23:56:06.388Z,94084.22
2018-01-19T23:58:34.729Z,94082.52
